Aviation Digital Data Service (ADDS)

Output produced by METARs form (1619 UTC 23 January 2019)
found at http://www.aviationweather.gov/metar/data/
 
METAR text: RJOO 231100Z 31005KT 9999 FEW030 BKN070 09/02 Q1015 RMK 1CU030 5AC070 A2998
Conditions at: RJOO (OSAKA INTL/ITAMI, JP) observed 1100 UTC 23 January 2019
Temperature: 9.0°C (48°F)
Dewpoint: 2.0°C (36°F) [RH = 61%]
Pressure (altimeter): 29.97 inches Hg (1015.0 mb)
Winds: from the NW (310 degrees) at 6 MPH (5 knots; 2.6 m/s)
Visibility: 6 or more miles (10+ km)
Ceiling: 7000 feet AGL
Clouds: few clouds at 3000 feet AGL
broken clouds at 7000 feet AGL
Weather: no significant weather observed at this time

METAR text: RJOO 231000Z 31005KT 9999 FEW030 BKN070 09/01 Q1014 RMK 1CU030 5AC070 A2997
Conditions at: RJOO (OSAKA INTL/ITAMI, JP) observed 1000 UTC 23 January 2019
Temperature: 9.0°C (48°F)
Dewpoint: 1.0°C (34°F) [RH = 57%]
Pressure (altimeter): 29.94 inches Hg (1014.0 mb)
Winds: from the NW (310 degrees) at 6 MPH (5 knots; 2.6 m/s)
Visibility: 6 or more miles (10+ km)
Ceiling: 7000 feet AGL
Clouds: few clouds at 3000 feet AGL
broken clouds at 7000 feet AGL
Weather: no significant weather observed at this time

METAR text: RJOO 230900Z 27003KT 230V320 9999 FEW030 BKN070 10/01 Q1014 RMK 1CU030 5AC070 A2997
Conditions at: RJOO (OSAKA INTL/ITAMI, JP) observed 0900 UTC 23 January 2019
Temperature: 10.0°C (50°F)
Dewpoint: 1.0°C (34°F) [RH = 53%]
Pressure (altimeter): 29.94 inches Hg (1014.0 mb)
Winds: from the W (270 degrees) at 3 MPH (3 knots; 1.5 m/s)
Visibility: 6 or more miles (10+ km)
Ceiling: 7000 feet AGL
Clouds: few clouds at 3000 feet AGL
broken clouds at 7000 feet AGL
Weather: no significant weather observed at this time

METAR text: RJOO 230800Z 24006KT 9999 FEW030 11/00 Q1014 RMK 1CU030 A2995
Conditions at: RJOO (OSAKA INTL/ITAMI, JP) observed 0800 UTC 23 January 2019
Temperature: 11.0°C (52°F)
Dewpoint: 0.0°C (32°F) [RH = 47%]
Pressure (altimeter): 29.94 inches Hg (1014.0 mb)
Winds: from the WSW (240 degrees) at 7 MPH (6 knots; 3.1 m/s)
Visibility: 6 or more miles (10+ km)
Ceiling: at least 12,000 feet AGL
Clouds: few clouds at 3000 feet AGL
Weather: no significant weather observed at this time

METAR text: RJOO 230700Z 24007KT 9999 FEW030 SCT050 11/01 Q1014 RMK 1CU030 3SC050 A2995
Conditions at: RJOO (OSAKA INTL/ITAMI, JP) observed 0700 UTC 23 January 2019
Temperature: 11.0°C (52°F)
Dewpoint: 1.0°C (34°F) [RH = 50%]
Pressure (altimeter): 29.94 inches Hg (1014.0 mb)
Winds: from the WSW (240 degrees) at 8 MPH (7 knots; 3.6 m/s)
Visibility: 6 or more miles (10+ km)
Ceiling: at least 12,000 feet AGL
Clouds: few clouds at 3000 feet AGL
scattered clouds at 5000 feet AGL
Weather: no significant weather observed at this time

METAR text: RJOO 230600Z 22008KT 160V260 9999 FEW025 BKN050 12/01 Q1014 RMK 1CU025 5SC050 A2995
Conditions at: RJOO (OSAKA INTL/ITAMI, JP) observed 0600 UTC 23 January 2019
Temperature: 12.0°C (54°F)
Dewpoint: 1.0°C (34°F) [RH = 47%]
Pressure (altimeter): 29.94 inches Hg (1014.0 mb)
Winds: from the SW (220 degrees) at 9 MPH (8 knots; 4.1 m/s)
Visibility: 6 or more miles (10+ km)
Ceiling: 5000 feet AGL
Clouds: few clouds at 2500 feet AGL
broken clouds at 5000 feet AGL
Weather: no significant weather observed at this time

METAR text: RJOO 230500Z 22010KT 170V270 9999 FEW025 BKN050 12/02 Q1014 RMK 1CU025 5SC050 A2995
Conditions at: RJOO (OSAKA INTL/ITAMI, JP) observed 0500 UTC 23 January 2019
Temperature: 12.0°C (54°F)
Dewpoint: 2.0°C (36°F) [RH = 50%]
Pressure (altimeter): 29.94 inches Hg (1014.0 mb)
Winds: from the SW (220 degrees) at 12 MPH (10 knots; 5.1 m/s)
Visibility: 6 or more miles (10+ km)
Ceiling: 5000 feet AGL
Clouds: few clouds at 2500 feet AGL
broken clouds at 5000 feet AGL
Weather: no significant weather observed at this time

METAR text: RJOO 230400Z 24010KT 210V270 9999 FEW025 SCT050 12/M00 Q1014 RMK 1CU025 4SC050 A2996
Conditions at: RJOO (OSAKA INTL/ITAMI, JP) observed 0400 UTC 23 January 2019
Temperature: 12.0°C (54°F)
Dewpoint: 0.0°C (32°F) [RH = 44%]
Pressure (altimeter): 29.94 inches Hg (1014.0 mb)
Winds: from the WSW (240 degrees) at 12 MPH (10 knots; 5.1 m/s)
Visibility: 6 or more miles (10+ km)
Ceiling: at least 12,000 feet AGL
Clouds: few clouds at 2500 feet AGL
scattered clouds at 5000 feet AGL
Weather: no significant weather observed at this time

METAR text: RJOO 230300Z 22009KT 9999 FEW025 BKN050 11/03 Q1015 RMK 1CU025 5SC050 A2999
Conditions at: RJOO (OSAKA INTL/ITAMI, JP) observed 0300 UTC 23 January 2019
Temperature: 11.0°C (52°F)
Dewpoint: 3.0°C (37°F) [RH = 58%]
Pressure (altimeter): 29.97 inches Hg (1015.0 mb)
Winds: from the SW (220 degrees) at 10 MPH (9 knots; 4.6 m/s)
Visibility: 6 or more miles (10+ km)
Ceiling: 5000 feet AGL
Clouds: few clouds at 2500 feet AGL
broken clouds at 5000 feet AGL
Weather: no significant weather observed at this time

METAR text: RJOO 230200Z 21005KT 180V280 9999 FEW025 BKN045 10/04 Q1016
Conditions at: RJOO (OSAKA INTL/ITAMI, JP) observed 0200 UTC 23 January 2019
Temperature: 10.0°C (50°F)
Dewpoint: 4.0°C (39°F) [RH = 66%]
Pressure (altimeter): 30.00 inches Hg (1016.0 mb)
Winds: from the SSW (210 degrees) at 6 MPH (5 knots; 2.6 m/s)
Visibility: 6 or more miles (10+ km)
Ceiling: 4500 feet AGL
Clouds: few clouds at 2500 feet AGL
broken clouds at 4500 feet AGL
Weather: no significant weather observed at this time

METAR text: RJOO 230100Z VRB02KT 9999 FEW025 07/01 Q1016 RMK 1CU025 A3002
Conditions at: RJOO (OSAKA INTL/ITAMI, JP) observed 0100 UTC 23 January 2019
Temperature: 7.0°C (45°F)
Dewpoint: 1.0°C (34°F) [RH = 66%]
Pressure (altimeter): 30.00 inches Hg (1016.0 mb)
Winds: variable direction winds at 2 MPH (2 knots; 1.0 m/s)
Visibility: 6 or more miles (10+ km)
Ceiling: at least 12,000 feet AGL
Clouds: few clouds at 2500 feet AGL
Weather: no significant weather observed at this time

METAR text: RJOO 230000Z 00000KT 9999 FEW025 04/00 Q1017 RMK 1CU025 A3004
Conditions at: RJOO (OSAKA INTL/ITAMI, JP) observed 0000 UTC 23 January 2019
Temperature: 4.0°C (39°F)
Dewpoint: 0.0°C (32°F) [RH = 75%]
Pressure (altimeter): 30.03 inches Hg (1017.0 mb)
Winds: calm
Visibility: 6 or more miles (10+ km)
Ceiling: at least 12,000 feet AGL
Clouds: few clouds at 2500 feet AGL
Weather: no significant weather observed at this time

METAR text: RJOO 222300Z 31003KT 9999 FEW025 BKN060 02/M01 Q1017 RMK 1CU025 5SC060 A3004
Conditions at: RJOO (OSAKA INTL/ITAMI, JP) observed 2300 UTC 22 January 2019
Temperature: 2.0°C (36°F)
Dewpoint: -1.0°C (30°F) [RH = 80%]
Pressure (altimeter): 30.03 inches Hg (1017.0 mb)
Winds: from the NW (310 degrees) at 3 MPH (3 knots; 1.5 m/s)
Visibility: 6 or more miles (10+ km)
Ceiling: 6000 feet AGL
Clouds: few clouds at 2500 feet AGL
broken clouds at 6000 feet AGL
Weather: no significant weather observed at this time

METAR text: RJOO 222200Z VRB02KT 9999 FEW025 00/M01 Q1017 RMK 1CU025 A3003
Conditions at: RJOO (OSAKA INTL/ITAMI, JP) observed 2200 UTC 22 January 2019
Temperature: 0.0°C (32°F)
Dewpoint: -1.0°C (30°F) [RH = 93%]
Pressure (altimeter): 30.03 inches Hg (1017.0 mb)
Winds: variable direction winds at 2 MPH (2 knots; 1.0 m/s)
Visibility: 6 or more miles (10+ km)
Ceiling: at least 12,000 feet AGL
Clouds: few clouds at 2500 feet AGL
Weather: no significant weather observed at this time

METAR text: RJOO 222100Z 31004KT 9999 FEW025 00/M01 Q1016 RMK 1CU025 A3003
Conditions at: RJOO (OSAKA INTL/ITAMI, JP) observed 2100 UTC 22 January 2019
Temperature: 0.0°C (32°F)
Dewpoint: -1.0°C (30°F) [RH = 93%]
Pressure (altimeter): 30.00 inches Hg (1016.0 mb)
Winds: from the NW (310 degrees) at 5 MPH (4 knots; 2.1 m/s)
Visibility: 6 or more miles (10+ km)
Ceiling: at least 12,000 feet AGL
Clouds: few clouds at 2500 feet AGL
Weather: no significant weather observed at this time

METAR text: RJOO 222000Z VRB01KT 9999 FEW025 01/M01 Q1016 RMK 1CU025 A3001
Conditions at: RJOO (OSAKA INTL/ITAMI, JP) observed 2000 UTC 22 January 2019
Temperature: 1.0°C (34°F)
Dewpoint: -1.0°C (30°F) [RH = 86%]
Pressure (altimeter): 30.00 inches Hg (1016.0 mb)
Winds: variable direction winds at 1 MPH (1 knots; 0.5 m/s)
Visibility: 6 or more miles (10+ km)
Ceiling: at least 12,000 feet AGL
Clouds: few clouds at 2500 feet AGL
Weather: no significant weather observed at this time

METAR text: RJOO 221100Z 32003KT 280V350 9999 FEW025 05/M00 Q1017 RMK 1CU025 A3004
Conditions at: RJOO (OSAKA INTL/ITAMI, JP) observed 1100 UTC 22 January 2019
Temperature: 5.0°C (41°F)
Dewpoint: 0.0°C (32°F) [RH = 70%]
Pressure (altimeter): 30.03 inches Hg (1017.0 mb)
Winds: from the NW (320 degrees) at 3 MPH (3 knots; 1.5 m/s)
Visibility: 6 or more miles (10+ km)
Ceiling: at least 12,000 feet AGL
Clouds: few clouds at 2500 feet AGL
Weather: no significant weather observed at this time

METAR text: RJOO 221000Z 32003KT 9999 FEW025 05/00 Q1017 RMK 1CU025 A3004
Conditions at: RJOO (OSAKA INTL/ITAMI, JP) observed 1000 UTC 22 January 2019
Temperature: 5.0°C (41°F)
Dewpoint: 0.0°C (32°F) [RH = 70%]
Pressure (altimeter): 30.03 inches Hg (1017.0 mb)
Winds: from the NW (320 degrees) at 3 MPH (3 knots; 1.5 m/s)
Visibility: 6 or more miles (10+ km)
Ceiling: at least 12,000 feet AGL
Clouds: few clouds at 2500 feet AGL
Weather: no significant weather observed at this time

METAR text: RJOO 220900Z 35007KT 9999 FEW025 07/00 Q1017 RMK 1CU025 A3003
Conditions at: RJOO (OSAKA INTL/ITAMI, JP) observed 0900 UTC 22 January 2019
Temperature: 7.0°C (45°F)
Dewpoint: 0.0°C (32°F) [RH = 61%]
Pressure (altimeter): 30.03 inches Hg (1017.0 mb)
Winds: from the N (350 degrees) at 8 MPH (7 knots; 3.6 m/s)
Visibility: 6 or more miles (10+ km)
Ceiling: at least 12,000 feet AGL
Clouds: few clouds at 2500 feet AGL
Weather: no significant weather observed at this time

METAR text: RJOO 220800Z 36010KT 9999 FEW025 BKN060 08/00 Q1016 RMK 1CU025 5SC060 A3002
Conditions at: RJOO (OSAKA INTL/ITAMI, JP) observed 0800 UTC 22 January 2019
Temperature: 8.0°C (46°F)
Dewpoint: 0.0°C (32°F) [RH = 57%]
Pressure (altimeter): 30.00 inches Hg (1016.0 mb)
Winds: from the N (360 degrees) at 12 MPH (10 knots; 5.1 m/s)
Visibility: 6 or more miles (10+ km)
Ceiling: 6000 feet AGL
Clouds: few clouds at 2500 feet AGL
broken clouds at 6000 feet AGL
Weather: no significant weather observed at this time

METAR text: RJOO 220700Z 33010KT 9999 FEW025 BKN060 09/M00 Q1016 RMK 1CU025 5SC060 A3000
Conditions at: RJOO (OSAKA INTL/ITAMI, JP) observed 0700 UTC 22 January 2019
Temperature: 9.0°C (48°F)
Dewpoint: 0.0°C (32°F) [RH = 53%]
Pressure (altimeter): 30.00 inches Hg (1016.0 mb)
Winds: from the NNW (330 degrees) at 12 MPH (10 knots; 5.1 m/s)
Visibility: 6 or more miles (10+ km)
Ceiling: 6000 feet AGL
Clouds: few clouds at 2500 feet AGL
broken clouds at 6000 feet AGL
Weather: no significant weather observed at this time

METAR text: RJOO 220600Z 33009KT 9999 FEW025 SCT050 09/M01 Q1015 RMK 1CU025 4SC050 A2999
Conditions at: RJOO (OSAKA INTL/ITAMI, JP) observed 0600 UTC 22 January 2019
Temperature: 9.0°C (48°F)
Dewpoint: -1.0°C (30°F) [RH = 49%]
Pressure (altimeter): 29.97 inches Hg (1015.0 mb)
Winds: from the NNW (330 degrees) at 10 MPH (9 knots; 4.6 m/s)
Visibility: 6 or more miles (10+ km)
Ceiling: at least 12,000 feet AGL
Clouds: few clouds at 2500 feet AGL
scattered clouds at 5000 feet AGL
Weather: no significant weather observed at this time

METAR text: RJOO 220500Z 34015KT 9999 FEW025 BKN050 12/00 Q1015 RMK 1CU025 5SC050 A2997
Conditions at: RJOO (OSAKA INTL/ITAMI, JP) observed 0500 UTC 22 January 2019
Temperature: 12.0°C (54°F)
Dewpoint: 0.0°C (32°F) [RH = 44%]
Pressure (altimeter): 29.97 inches Hg (1015.0 mb)
Winds: from the NNW (340 degrees) at 17 MPH (15 knots; 7.7 m/s)
Visibility: 6 or more miles (10+ km)
Ceiling: 5000 feet AGL
Clouds: few clouds at 2500 feet AGL
broken clouds at 5000 feet AGL
Weather: no significant weather observed at this time

Forecast for: RJOO (OSAKA INTL/ITAMI, JP)
Text: TAF RJOO 231106Z 2312/2418 32005KT 9999 FEW025 SCT045
Forecast period: 1200 UTC 23 January 2019 to 1800 UTC 24 January 2019
Forecast type: FROM: standard forecast or significant change
Winds: from the NW (320 degrees) at 6 MPH (5 knots; 2.6 m/s)
Visibility: 6 or more miles 10+ km)
Ceiling: at least 12,000 feet AGL
Clouds: few clouds at 2500 feet AGL
scattered clouds at 4500 feet AGL
Weather: no significant weather forecast for this period